sensor_id;sensor_type;location;lat;lon;timestamp;P1;durP1;ratioP1;P2;durP2;ratioP2
2049;SDS011;8478;49.208;8.806;2023-09-07T00:01:25;7.13;;;6.53;;
2049;SDS011;8478;49.208;8.806;2023-09-07T00:03:50;6.57;;;6.07;;
2049;SDS011;8478;49.208;8.806;2023-09-07T00:06:16;7.73;;;6.70;;
2049;SDS011;8478;49.208;8.806;2023-09-07T00:08:43;7.73;;;7.03;;
2049;SDS011;8478;49.208;8.806;2023-09-07T00:11:09;6.70;;;6.20;;
2049;SDS011;8478;49.208;8.806;2023-09-07T00:13:35;7.50;;;7.00;;
2049;SDS011;8478;49.208;8.806;2023-09-07T00:16:04;6.60;;;6.20;;
2049;SDS011;8478;49.208;8.806;2023-09-07T00:18:30;7.20;;;6.70;;
2049;SDS011;8478;49.208;8.806;2023-09-07T00:20:57;6.40;;;6.00;;
2049;SDS011;8478;49.208;8.806;2023-09-07T00:23:24;5.97;;;5.57;;
2049;SDS011;8478;49.208;8.806;2023-09-07T00:25:50;6.60;;;6.20;;
2049;SDS011;8478;49.208;8.806;2023-09-07T00:28:15;7.33;;;6.73;;
2049;SDS011;8478;49.208;8.806;2023-09-07T00:30:41;7.00;;;6.60;;
2049;SDS011;8478;49.208;8.806;2023-09-07T00:33:07;7.30;;;6.80;;
2049;SDS011;8478;49.208;8.806;2023-09-07T00:35:32;6.53;;;6.03;;
2049;SDS011;8478;49.208;8.806;2023-09-07T00:37:59;6.87;;;6.37;;
2049;SDS011;8478;49.208;8.806;2023-09-07T00:40:25;7.27;;;6.70;;
2049;SDS011;8478;49.208;8.806;2023-09-07T00:42:51;6.80;;;6.37;;
2049;SDS011;8478;49.208;8.806;2023-09-07T00:45:18;7.30;;;6.60;;
2049;SDS011;8478;49.208;8.806;2023-09-07T00:47:44;7.73;;;7.23;;
2049;SDS011;8478;49.208;8.806;2023-09-07T00:50:10;7.13;;;6.63;;
2049;SDS011;8478;49.208;8.806;2023-09-07T00:52:38;6.90;;;6.30;;
2049;SDS011;8478;49.208;8.806;2023-09-07T00:55:07;6.63;;;6.20;;
2049;SDS011;8478;49.208;8.806;2023-09-07T00:57:33;7.00;;;6.53;;
2049;SDS011;8478;49.208;8.806;2023-09-07T00:59:59;6.57;;;6.07;;
2049;SDS011;8478;49.208;8.806;2023-09-07T01:02:25;7.23;;;6.83;;
2049;SDS011;8478;49.208;8.806;2023-09-07T01:04:51;6.73;;;6.23;;
2049;SDS011;8478;49.208;8.806;2023-09-07T01:07:18;6.77;;;6.37;;
2049;SDS011;8478;49.208;8.806;2023-09-07T01:09:49;6.47;;;6.00;;
2049;SDS011;8478;49.208;8.806;2023-09-07T01:12:19;7.33;;;6.33;;
2049;SDS011;8478;49.208;8.806;2023-09-07T01:14:45;6.30;;;6.00;;
2049;SDS011;8478;49.208;8.806;2023-09-07T01:17:11;6.90;;;6.50;;
2049;SDS011;8478;49.208;8.806;2023-09-07T01:19:38;6.20;;;5.80;;
2049;SDS011;8478;49.208;8.806;2023-09-07T01:22:05;6.40;;;6.00;;
2049;SDS011;8478;49.208;8.806;2023-09-07T01:24:33;7.67;;;7.07;;
2049;SDS011;8478;49.208;8.806;2023-09-07T01:27:01;7.30;;;6.90;;
2049;SDS011;8478;49.208;8.806;2023-09-07T01:29:28;7.00;;;6.50;;
2049;SDS011;8478;49.208;8.806;2023-09-07T01:31:54;6.80;;;6.23;;
2049;SDS011;8478;49.208;8.806;2023-09-07T01:34:20;9.43;;;6.33;;
2049;SDS011;8478;49.208;8.806;2023-09-07T01:36:46;6.83;;;6.43;;
2049;SDS011;8478;49.208;8.806;2023-09-07T01:39:12;6.97;;;6.40;;
2049;SDS011;8478;49.208;8.806;2023-09-07T01:41:37;11.63;;;7.10;;
2049;SDS011;8478;49.208;8.806;2023-09-07T01:44:03;6.87;;;6.47;;
2049;SDS011;8478;49.208;8.806;2023-09-07T01:46:29;7.27;;;6.77;;
2049;SDS011;8478;49.208;8.806;2023-09-07T01:48:55;6.60;;;6.10;;
2049;SDS011;8478;49.208;8.806;2023-09-07T01:51:20;7.00;;;6.50;;
2049;SDS011;8478;49.208;8.806;2023-09-07T01:53:49;6.23;;;5.73;;
2049;SDS011;8478;49.208;8.806;2023-09-07T01:56:17;7.40;;;7.00;;
2049;SDS011;8478;49.208;8.806;2023-09-07T01:58:43;7.00;;;6.40;;
2049;SDS011;8478;49.208;8.806;2023-09-07T02:01:22;6.30;;;5.90;;
2049;SDS011;8478;49.208;8.806;2023-09-07T02:03:51;7.17;;;6.50;;
2049;SDS011;8478;49.208;8.806;2023-09-07T02:06:17;7.47;;;7.00;;
2049;SDS011;8478;49.208;8.806;2023-09-07T02:08:43;6.83;;;6.33;;
2049;SDS011;8478;49.208;8.806;2023-09-07T02:11:09;7.07;;;6.50;;
2049;SDS011;8478;49.208;8.806;2023-09-07T02:13:34;6.43;;;6.03;;
2049;SDS011;8478;49.208;8.806;2023-09-07T02:16:06;6.50;;;6.10;;
2049;SDS011;8478;49.208;8.806;2023-09-07T02:18:32;7.40;;;7.00;;
2049;SDS011;8478;49.208;8.806;2023-09-07T02:21:02;7.20;;;6.80;;
2049;SDS011;8478;49.208;8.806;2023-09-07T02:23:28;7.07;;;6.57;;
2049;SDS011;8478;49.208;8.806;2023-09-07T02:25:57;7.27;;;6.80;;
2049;SDS011;8478;49.208;8.806;2023-09-07T02:28:24;6.17;;;5.77;;
2049;SDS011;8478;49.208;8.806;2023-09-07T02:30:50;6.10;;;5.70;;
2049;SDS011;8478;49.208;8.806;2023-09-07T02:33:16;7.13;;;6.63;;
2049;SDS011;8478;49.208;8.806;2023-09-07T02:35:42;6.30;;;5.90;;
2049;SDS011;8478;49.208;8.806;2023-09-07T02:38:08;7.00;;;6.60;;
2049;SDS011;8478;49.208;8.806;2023-09-07T02:40:39;6.47;;;6.07;;
2049;SDS011;8478;49.208;8.806;2023-09-07T02:43:07;7.10;;;6.70;;
2049;SDS011;8478;49.208;8.806;2023-09-07T02:45:32;6.60;;;6.20;;
2049;SDS011;8478;49.208;8.806;2023-09-07T02:47:58;6.05;;;5.55;;
2049;SDS011;8478;49.208;8.806;2023-09-07T02:50:24;7.43;;;6.70;;
2049;SDS011;8478;49.208;8.806;2023-09-07T02:52:49;6.00;;;5.70;;
2049;SDS011;8478;49.208;8.806;2023-09-07T02:55:15;6.60;;;6.23;;
2049;SDS011;8478;49.208;8.806;2023-09-07T02:57:41;6.70;;;6.30;;
2049;SDS011;8478;49.208;8.806;2023-09-07T03:00:07;6.67;;;6.20;;
2049;SDS011;8478;49.208;8.806;2023-09-07T03:02:35;6.20;;;5.80;;
2049;SDS011;8478;49.208;8.806;2023-09-07T03:05:01;7.30;;;6.80;;
2049;SDS011;8478;49.208;8.806;2023-09-07T03:07:30;6.70;;;6.30;;
2049;SDS011;8478;49.208;8.806;2023-09-07T03:09:58;7.27;;;6.87;;
2049;SDS011;8478;49.208;8.806;2023-09-07T03:12:23;6.87;;;6.47;;
2049;SDS011;8478;49.208;8.806;2023-09-07T03:14:49;5.45;;;5.05;;
2049;SDS011;8478;49.208;8.806;2023-09-07T03:17:16;7.23;;;6.83;;
2049;SDS011;8478;49.208;8.806;2023-09-07T03:19:42;6.63;;;6.23;;
2049;SDS011;8478;49.208;8.806;2023-09-07T03:22:08;6.50;;;6.10;;
2049;SDS011;8478;49.208;8.806;2023-09-07T03:24:34;6.67;;;6.07;;
2049;SDS011;8478;49.208;8.806;2023-09-07T03:27:00;7.37;;;6.77;;
2049;SDS011;8478;49.208;8.806;2023-09-07T03:29:25;8.73;;;6.80;;
2049;SDS011;8478;49.208;8.806;2023-09-07T03:31:51;7.57;;;6.73;;
2049;SDS011;8478;49.208;8.806;2023-09-07T03:34:17;7.87;;;7.10;;
2049;SDS011;8478;49.208;8.806;2023-09-07T03:36:42;6.50;;;6.10;;
2049;SDS011;8478;49.208;8.806;2023-09-07T03:39:08;7.30;;;6.80;;
2049;SDS011;8478;49.208;8.806;2023-09-07T03:41:35;7.50;;;7.00;;
2049;SDS011;8478;49.208;8.806;2023-09-07T03:44:01;6.90;;;6.50;;
2049;SDS011;8478;49.208;8.806;2023-09-07T03:46:26;7.50;;;7.00;;
2049;SDS011;8478;49.208;8.806;2023-09-07T03:48:52;7.90;;;7.00;;
2049;SDS011;8478;49.208;8.806;2023-09-07T03:51:18;7.00;;;6.60;;
2049;SDS011;8478;49.208;8.806;2023-09-07T03:53:44;7.00;;;6.50;;
2049;SDS011;8478;49.208;8.806;2023-09-07T03:56:09;7.20;;;6.70;;
2049;SDS011;8478;49.208;8.806;2023-09-07T03:58:35;7.00;;;6.40;;
2049;SDS011;8478;49.208;8.806;2023-09-07T04:01:00;6.73;;;6.33;;
2049;SDS011;8478;49.208;8.806;2023-09-07T04:03:26;8.37;;;7.60;;
2049;SDS011;8478;49.208;8.806;2023-09-07T04:05:52;6.90;;;6.27;;
2049;SDS011;8478;49.208;8.806;2023-09-07T04:08:18;6.47;;;6.00;;
2049;SDS011;8478;49.208;8.806;2023-09-07T04:10:43;7.20;;;6.73;;
2049;SDS011;8478;49.208;8.806;2023-09-07T04:13:09;6.93;;;6.53;;
2049;SDS011;8478;49.208;8.806;2023-09-07T04:15:41;7.67;;;7.07;;
2049;SDS011;8478;49.208;8.806;2023-09-07T04:18:11;7.30;;;6.80;;
2049;SDS011;8478;49.208;8.806;2023-09-07T04:20:38;7.20;;;6.80;;
2049;SDS011;8478;49.208;8.806;2023-09-07T04:23:04;6.47;;;6.07;;
2049;SDS011;8478;49.208;8.806;2023-09-07T04:25:30;7.03;;;6.70;;
2049;SDS011;8478;49.208;8.806;2023-09-07T04:27:56;6.83;;;6.47;;
2049;SDS011;8478;49.208;8.806;2023-09-07T04:30:22;6.50;;;6.20;;
2049;SDS011;8478;49.208;8.806;2023-09-07T04:32:48;6.80;;;6.30;;
2049;SDS011;8478;49.208;8.806;2023-09-07T04:35:14;7.00;;;6.60;;
2049;SDS011;8478;49.208;8.806;2023-09-07T04:37:42;6.63;;;6.17;;
2049;SDS011;8478;49.208;8.806;2023-09-07T04:40:08;7.73;;;7.27;;
2049;SDS011;8478;49.208;8.806;2023-09-07T04:42:35;6.90;;;6.57;;
2049;SDS011;8478;49.208;8.806;2023-09-07T04:45:00;7.20;;;6.70;;
2049;SDS011;8478;49.208;8.806;2023-09-07T04:47:26;6.90;;;6.30;;
2049;SDS011;8478;49.208;8.806;2023-09-07T04:49:52;6.23;;;5.83;;
2049;SDS011;8478;49.208;8.806;2023-09-07T04:52:18;7.13;;;6.67;;
2049;SDS011;8478;49.208;8.806;2023-09-07T04:54:44;7.73;;;7.33;;
2049;SDS011;8478;49.208;8.806;2023-09-07T04:57:10;7.23;;;6.83;;
2049;SDS011;8478;49.208;8.806;2023-09-07T04:59:36;7.40;;;6.80;;
2049;SDS011;8478;49.208;8.806;2023-09-07T05:02:01;7.40;;;6.90;;
2049;SDS011;8478;49.208;8.806;2023-09-07T05:04:27;8.10;;;7.57;;
2049;SDS011;8478;49.208;8.806;2023-09-07T05:06:54;8.00;;;7.50;;
2049;SDS011;8478;49.208;8.806;2023-09-07T05:09:20;7.13;;;6.73;;
2049;SDS011;8478;49.208;8.806;2023-09-07T05:11:46;7.63;;;7.17;;
2049;SDS011;8478;49.208;8.806;2023-09-07T05:14:12;7.00;;;6.60;;
2049;SDS011;8478;49.208;8.806;2023-09-07T05:16:37;7.40;;;7.00;;
2049;SDS011;8478;49.208;8.806;2023-09-07T05:19:03;7.43;;;6.97;;
2049;SDS011;8478;49.208;8.806;2023-09-07T05:21:29;7.17;;;6.67;;
2049;SDS011;8478;49.208;8.806;2023-09-07T05:23:54;7.00;;;6.60;;
2049;SDS011;8478;49.208;8.806;2023-09-07T05:26:21;8.03;;;7.53;;
2049;SDS011;8478;49.208;8.806;2023-09-07T05:28:49;8.00;;;7.40;;
2049;SDS011;8478;49.208;8.806;2023-09-07T05:31:15;6.80;;;6.40;;
2049;SDS011;8478;49.208;8.806;2023-09-07T05:33:41;7.00;;;6.60;;
2049;SDS011;8478;49.208;8.806;2023-09-07T05:36:06;7.50;;;7.10;;
2049;SDS011;8478;49.208;8.806;2023-09-07T05:38:32;7.90;;;7.40;;
2049;SDS011;8478;49.208;8.806;2023-09-07T05:40:58;7.03;;;6.63;;
2049;SDS011;8478;49.208;8.806;2023-09-07T05:43:23;7.97;;;7.43;;
2049;SDS011;8478;49.208;8.806;2023-09-07T05:45:49;8.00;;;7.30;;
2049;SDS011;8478;49.208;8.806;2023-09-07T05:48:14;8.00;;;7.60;;
2049;SDS011;8478;49.208;8.806;2023-09-07T05:50:43;8.00;;;7.50;;
2049;SDS011;8478;49.208;8.806;2023-09-07T05:53:09;7.40;;;7.00;;
2049;SDS011;8478;49.208;8.806;2023-09-07T05:55:35;8.07;;;7.37;;
2049;SDS011;8478;49.208;8.806;2023-09-07T05:58:04;7.40;;;7.00;;
2049;SDS011;8478;49.208;8.806;2023-09-07T06:00:31;7.13;;;6.73;;
2049;SDS011;8478;49.208;8.806;2023-09-07T06:02:56;6.90;;;6.40;;
2049;SDS011;8478;49.208;8.806;2023-09-07T06:05:22;7.80;;;7.30;;
2049;SDS011;8478;49.208;8.806;2023-09-07T06:07:48;6.20;;;5.80;;
2049;SDS011;8478;49.208;8.806;2023-09-07T06:10:14;8.03;;;7.57;;
2049;SDS011;8478;49.208;8.806;2023-09-07T06:12:40;7.07;;;6.60;;
2049;SDS011;8478;49.208;8.806;2023-09-07T06:15:07;8.53;;;8.03;;
2049;SDS011;8478;49.208;8.806;2023-09-07T06:17:33;7.80;;;7.20;;
2049;SDS011;8478;49.208;8.806;2023-09-07T06:19:58;8.10;;;7.70;;
2049;SDS011;8478;49.208;8.806;2023-09-07T06:22:24;7.60;;;7.20;;
2049;SDS011;8478;49.208;8.806;2023-09-07T06:24:50;8.30;;;7.80;;
2049;SDS011;8478;49.208;8.806;2023-09-07T06:27:15;7.70;;;7.30;;
2049;SDS011;8478;49.208;8.806;2023-09-07T06:29:41;7.90;;;7.40;;
2049;SDS011;8478;49.208;8.806;2023-09-07T06:32:07;7.80;;;7.40;;
2049;SDS011;8478;49.208;8.806;2023-09-07T06:34:32;8.67;;;8.17;;
2049;SDS011;8478;49.208;8.806;2023-09-07T06:36:58;8.70;;;8.30;;
2049;SDS011;8478;49.208;8.806;2023-09-07T06:39:24;8.27;;;7.87;;
2049;SDS011;8478;49.208;8.806;2023-09-07T06:41:50;8.93;;;8.33;;
2049;SDS011;8478;49.208;8.806;2023-09-07T06:44:16;8.80;;;8.17;;
2049;SDS011;8478;49.208;8.806;2023-09-07T06:46:42;7.93;;;7.43;;
2049;SDS011;8478;49.208;8.806;2023-09-07T06:49:07;8.30;;;7.80;;
2049;SDS011;8478;49.208;8.806;2023-09-07T06:51:33;8.50;;;8.00;;
2049;SDS011;8478;49.208;8.806;2023-09-07T06:53:59;8.20;;;7.80;;
2049;SDS011;8478;49.208;8.806;2023-09-07T06:56:24;9.10;;;8.57;;
2049;SDS011;8478;49.208;8.806;2023-09-07T06:58:51;8.40;;;8.00;;
2049;SDS011;8478;49.208;8.806;2023-09-07T07:01:17;8.10;;;7.70;;
2049;SDS011;8478;49.208;8.806;2023-09-07T07:03:43;7.87;;;7.47;;
2049;SDS011;8478;49.208;8.806;2023-09-07T07:06:09;8.30;;;7.80;;
2049;SDS011;8478;49.208;8.806;2023-09-07T07:08:35;6.28;;;5.88;;
2049;SDS011;8478;49.208;8.806;2023-09-07T07:11:00;7.40;;;7.00;;
2049;SDS011;8478;49.208;8.806;2023-09-07T07:13:26;7.60;;;7.10;;
2049;SDS011;8478;49.208;8.806;2023-09-07T07:15:52;8.03;;;7.60;;
2049;SDS011;8478;49.208;8.806;2023-09-07T07:18:17;8.47;;;7.97;;
2049;SDS011;8478;49.208;8.806;2023-09-07T07:20:44;8.40;;;7.90;;
2049;SDS011;8478;49.208;8.806;2023-09-07T07:23:10;7.83;;;7.43;;
2049;SDS011;8478;49.208;8.806;2023-09-07T07:25:37;8.27;;;7.77;;
2049;SDS011;8478;49.208;8.806;2023-09-07T07:28:06;8.00;;;7.60;;
2049;SDS011;8478;49.208;8.806;2023-09-07T07:30:37;7.73;;;7.33;;
2049;SDS011;8478;49.208;8.806;2023-09-07T07:33:05;7.70;;;7.20;;
2049;SDS011;8478;49.208;8.806;2023-09-07T07:35:32;8.13;;;7.63;;
2049;SDS011;8478;49.208;8.806;2023-09-07T07:38:04;9.30;;;8.50;;
2049;SDS011;8478;49.208;8.806;2023-09-07T07:40:31;8.07;;;7.57;;
2049;SDS011;8478;49.208;8.806;2023-09-07T07:42:57;8.00;;;7.47;;
2049;SDS011;8478;49.208;8.806;2023-09-07T07:45:22;8.70;;;8.20;;
2049;SDS011;8478;49.208;8.806;2023-09-07T07:47:48;8.23;;;7.70;;
2049;SDS011;8478;49.208;8.806;2023-09-07T07:50:14;7.57;;;7.13;;
2049;SDS011;8478;49.208;8.806;2023-09-07T07:52:41;8.67;;;8.07;;
2049;SDS011;8478;49.208;8.806;2023-09-07T07:55:07;6.67;;;6.37;;
2049;SDS011;8478;49.208;8.806;2023-09-07T07:57:33;7.70;;;7.23;;
2049;SDS011;8478;49.208;8.806;2023-09-07T07:59:59;7.40;;;6.80;;
2049;SDS011;8478;49.208;8.806;2023-09-07T08:02:25;7.90;;;7.40;;
2049;SDS011;8478;49.208;8.806;2023-09-07T08:04:51;8.40;;;7.90;;
2049;SDS011;8478;49.208;8.806;2023-09-07T08:07:16;7.67;;;7.27;;
2049;SDS011;8478;49.208;8.806;2023-09-07T08:09:42;8.30;;;7.70;;
2049;SDS011;8478;49.208;8.806;2023-09-07T08:12:08;7.13;;;6.73;;
2049;SDS011;8478;49.208;8.806;2023-09-07T08:14:34;8.10;;;7.60;;
2049;SDS011;8478;49.208;8.806;2023-09-07T08:17:00;7.53;;;7.07;;
2049;SDS011;8478;49.208;8.806;2023-09-07T08:19:26;8.43;;;7.93;;
2049;SDS011;8478;49.208;8.806;2023-09-07T08:21:56;7.30;;;6.90;;
2049;SDS011;8478;49.208;8.806;2023-09-07T08:24:23;9.13;;;8.70;;
2049;SDS011;8478;49.208;8.806;2023-09-07T08:26:49;6.68;;;6.28;;
2049;SDS011;8478;49.208;8.806;2023-09-07T08:29:19;7.70;;;7.20;;
2049;SDS011;8478;49.208;8.806;2023-09-07T08:31:52;8.77;;;8.17;;
2049;SDS011;8478;49.208;8.806;2023-09-07T08:34:21;7.50;;;7.10;;
2049;SDS011;8478;49.208;8.806;2023-09-07T08:36:48;9.10;;;8.50;;
2049;SDS011;8478;49.208;8.806;2023-09-07T08:39:15;9.07;;;8.37;;
2049;SDS011;8478;49.208;8.806;2023-09-07T08:41:42;9.07;;;8.47;;
2049;SDS011;8478;49.208;8.806;2023-09-07T08:44:14;9.30;;;8.70;;
2049;SDS011;8478;49.208;8.806;2023-09-07T08:46:41;9.00;;;8.50;;
2049;SDS011;8478;49.208;8.806;2023-09-07T08:49:08;9.07;;;8.57;;
2049;SDS011;8478;49.208;8.806;2023-09-07T08:51:36;8.43;;;7.93;;
2049;SDS011;8478;49.208;8.806;2023-09-07T08:54:03;8.50;;;8.00;;
2049;SDS011;8478;49.208;8.806;2023-09-07T08:56:29;8.23;;;7.83;;
2049;SDS011;8478;49.208;8.806;2023-09-07T08:58:55;8.87;;;8.37;;
2049;SDS011;8478;49.208;8.806;2023-09-07T09:01:21;8.60;;;8.10;;
2049;SDS011;8478;49.208;8.806;2023-09-07T09:03:47;8.83;;;8.33;;
2049;SDS011;8478;49.208;8.806;2023-09-07T09:06:14;9.00;;;8.50;;
2049;SDS011;8478;49.208;8.806;2023-09-07T09:08:47;9.60;;;8.97;;
2049;SDS011;8478;49.208;8.806;2023-09-07T09:11:20;9.00;;;8.47;;
2049;SDS011;8478;49.208;8.806;2023-09-07T09:13:47;8.90;;;8.17;;
2049;SDS011;8478;49.208;8.806;2023-09-07T09:16:14;8.70;;;8.20;;
2049;SDS011;8478;49.208;8.806;2023-09-07T09:21:25;8.93;;;8.40;;
2049;SDS011;8478;49.208;8.806;2023-09-07T09:23:52;8.63;;;7.93;;
2049;SDS011;8478;49.208;8.806;2023-09-07T09:26:20;8.80;;;8.20;;
2049;SDS011;8478;49.208;8.806;2023-09-07T09:28:45;9.67;;;8.77;;
2049;SDS011;8478;49.208;8.806;2023-09-07T09:31:12;9.37;;;8.70;;
2049;SDS011;8478;49.208;8.806;2023-09-07T09:33:38;10.27;;;9.33;;
2049;SDS011;8478;49.208;8.806;2023-09-07T09:36:05;10.40;;;9.70;;
2049;SDS011;8478;49.208;8.806;2023-09-07T09:38:32;10.40;;;9.53;;
2049;SDS011;8478;49.208;8.806;2023-09-07T09:40:58;8.50;;;8.00;;
2049;SDS011;8478;49.208;8.806;2023-09-07T09:43:24;9.70;;;8.90;;
2049;SDS011;8478;49.208;8.806;2023-09-07T09:45:51;9.60;;;9.00;;
2049;SDS011;8478;49.208;8.806;2023-09-07T09:48:21;9.30;;;8.70;;
2049;SDS011;8478;49.208;8.806;2023-09-07T09:50:47;10.27;;;9.57;;
2049;SDS011;8478;49.208;8.806;2023-09-07T09:53:14;9.60;;;9.00;;
2049;SDS011;8478;49.208;8.806;2023-09-07T09:55:48;8.83;;;8.23;;
2049;SDS011;8478;49.208;8.806;2023-09-07T09:58:17;8.40;;;7.67;;
2049;SDS011;8478;49.208;8.806;2023-09-07T10:00:44;9.70;;;8.90;;
2049;SDS011;8478;49.208;8.806;2023-09-07T10:05:51;8.53;;;7.83;;
2049;SDS011;8478;49.208;8.806;2023-09-07T10:08:18;8.70;;;8.10;;
2049;SDS011;8478;49.208;8.806;2023-09-07T10:10:47;8.73;;;8.07;;
2049;SDS011;8478;49.208;8.806;2023-09-07T10:13:14;9.10;;;8.50;;
2049;SDS011;8478;49.208;8.806;2023-09-07T10:15:41;10.00;;;9.40;;
2049;SDS011;8478;49.208;8.806;2023-09-07T10:20:56;7.93;;;7.43;;
2049;SDS011;8478;49.208;8.806;2023-09-07T10:23:34;9.20;;;8.60;;
2049;SDS011;8478;49.208;8.806;2023-09-07T10:26:02;9.67;;;9.07;;
2049;SDS011;8478;49.208;8.806;2023-09-07T10:28:29;9.93;;;9.27;;
2049;SDS011;8478;49.208;8.806;2023-09-07T10:31:02;9.10;;;8.50;;
2049;SDS011;8478;49.208;8.806;2023-09-07T10:33:29;9.20;;;8.60;;
2049;SDS011;8478;49.208;8.806;2023-09-07T10:35:59;9.30;;;8.53;;
2049;SDS011;8478;49.208;8.806;2023-09-07T10:38:26;7.40;;;6.90;;
2049;SDS011;8478;49.208;8.806;2023-09-07T10:40:56;9.80;;;9.07;;
2049;SDS011;8478;49.208;8.806;2023-09-07T10:43:26;8.60;;;8.10;;
2049;SDS011;8478;49.208;8.806;2023-09-07T10:45:56;8.70;;;8.10;;
2049;SDS011;8478;49.208;8.806;2023-09-07T10:48:23;9.33;;;8.80;;
2049;SDS011;8478;49.208;8.806;2023-09-07T10:50:50;8.63;;;8.03;;
2049;SDS011;8478;49.208;8.806;2023-09-07T10:53:24;9.10;;;8.40;;
2049;SDS011;8478;49.208;8.806;2023-09-07T10:55:52;9.57;;;8.97;;
2049;SDS011;8478;49.208;8.806;2023-09-07T10:58:26;9.30;;;8.80;;
2049;SDS011;8478;49.208;8.806;2023-09-07T11:00:56;10.03;;;9.23;;
2049;SDS011;8478;49.208;8.806;2023-09-07T11:03:22;9.10;;;8.60;;
2049;SDS011;8478;49.208;8.806;2023-09-07T11:05:49;9.60;;;9.00;;
2049;SDS011;8478;49.208;8.806;2023-09-07T11:08:16;9.40;;;8.90;;
2049;SDS011;8478;49.208;8.806;2023-09-07T11:10:42;8.97;;;8.47;;
2049;SDS011;8478;49.208;8.806;2023-09-07T11:13:09;9.90;;;9.23;;
2049;SDS011;8478;49.208;8.806;2023-09-07T11:15:35;9.23;;;8.60;;
2049;SDS011;8478;49.208;8.806;2023-09-07T11:18:07;9.63;;;9.03;;
2049;SDS011;8478;49.208;8.806;2023-09-07T11:20:34;10.17;;;9.47;;
2049;SDS011;8478;49.208;8.806;2023-09-07T11:23:01;9.57;;;9.00;;
2049;SDS011;8478;49.208;8.806;2023-09-07T11:25:27;9.43;;;8.83;;
2049;SDS011;8478;49.208;8.806;2023-09-07T11:28:03;9.30;;;8.80;;
2049;SDS011;8478;49.208;8.806;2023-09-07T11:30:29;10.60;;;10.00;;
2049;SDS011;8478;49.208;8.806;2023-09-07T11:35:27;9.10;;;8.60;;
2049;SDS011;8478;49.208;8.806;2023-09-07T11:37:53;9.60;;;9.00;;
2049;SDS011;8478;49.208;8.806;2023-09-07T11:40:19;9.40;;;8.80;;
2049;SDS011;8478;49.208;8.806;2023-09-07T11:42:44;8.73;;;8.23;;
2049;SDS011;8478;49.208;8.806;2023-09-07T11:45:10;8.67;;;8.17;;
2049;SDS011;8478;49.208;8.806;2023-09-07T11:47:38;9.47;;;8.87;;
2049;SDS011;8478;49.208;8.806;2023-09-07T11:50:04;9.70;;;9.10;;
2049;SDS011;8478;49.208;8.806;2023-09-07T11:52:31;8.17;;;7.60;;
2049;SDS011;8478;49.208;8.806;2023-09-07T11:54:57;9.93;;;9.33;;
2049;SDS011;8478;49.208;8.806;2023-09-07T11:57:23;9.00;;;8.50;;
2049;SDS011;8478;49.208;8.806;2023-09-07T11:59:49;8.67;;;8.07;;
2049;SDS011;8478;49.208;8.806;2023-09-07T12:02:15;9.40;;;8.90;;
2049;SDS011;8478;49.208;8.806;2023-09-07T12:04:42;9.40;;;8.90;;
2049;SDS011;8478;49.208;8.806;2023-09-07T12:07:08;8.60;;;8.10;;
2049;SDS011;8478;49.208;8.806;2023-09-07T12:09:35;8.47;;;7.90;;
2049;SDS011;8478;49.208;8.806;2023-09-07T12:12:00;9.60;;;8.87;;
2049;SDS011;8478;49.208;8.806;2023-09-07T12:14:26;9.53;;;8.73;;
2049;SDS011;8478;49.208;8.806;2023-09-07T12:16:51;8.80;;;8.30;;
2049;SDS011;8478;49.208;8.806;2023-09-07T12:19:17;9.77;;;8.90;;
2049;SDS011;8478;49.208;8.806;2023-09-07T12:21:43;8.83;;;8.33;;
2049;SDS011;8478;49.208;8.806;2023-09-07T12:24:08;9.07;;;8.57;;
2049;SDS011;8478;49.208;8.806;2023-09-07T12:26:34;8.60;;;8.10;;
2049;SDS011;8478;49.208;8.806;2023-09-07T12:29:00;8.80;;;8.20;;
2049;SDS011;8478;49.208;8.806;2023-09-07T12:31:26;8.20;;;7.77;;
2049;SDS011;8478;49.208;8.806;2023-09-07T12:33:51;8.70;;;8.20;;
2049;SDS011;8478;49.208;8.806;2023-09-07T12:36:17;8.83;;;8.13;;
2049;SDS011;8478;49.208;8.806;2023-09-07T12:38:43;8.23;;;7.83;;
2049;SDS011;8478;49.208;8.806;2023-09-07T12:41:09;7.90;;;7.50;;
2049;SDS011;8478;49.208;8.806;2023-09-07T12:43:34;8.23;;;7.73;;
2049;SDS011;8478;49.208;8.806;2023-09-07T12:46:01;7.87;;;7.47;;
2049;SDS011;8478;49.208;8.806;2023-09-07T12:48:26;8.83;;;8.30;;
2049;SDS011;8478;49.208;8.806;2023-09-07T12:50:53;7.70;;;7.30;;
2049;SDS011;8478;49.208;8.806;2023-09-07T12:53:19;9.10;;;8.40;;
2049;SDS011;8478;49.208;8.806;2023-09-07T12:55:49;8.53;;;8.03;;
2049;SDS011;8478;49.208;8.806;2023-09-07T12:58:15;8.70;;;8.20;;
2049;SDS011;8478;49.208;8.806;2023-09-07T13:00:41;7.93;;;7.43;;
2049;SDS011;8478;49.208;8.806;2023-09-07T13:03:07;8.90;;;8.40;;
2049;SDS011;8478;49.208;8.806;2023-09-07T13:05:32;8.53;;;7.93;;
2049;SDS011;8478;49.208;8.806;2023-09-07T13:07:58;8.33;;;7.83;;
2049;SDS011;8478;49.208;8.806;2023-09-07T13:10:27;8.10;;;7.53;;
2049;SDS011;8478;49.208;8.806;2023-09-07T13:12:53;8.97;;;8.47;;
2049;SDS011;8478;49.208;8.806;2023-09-07T13:15:18;8.60;;;8.20;;
2049;SDS011;8478;49.208;8.806;2023-09-07T13:17:44;8.77;;;8.07;;
2049;SDS011;8478;49.208;8.806;2023-09-07T13:20:10;10.10;;;9.50;;
2049;SDS011;8478;49.208;8.806;2023-09-07T13:22:37;8.40;;;7.90;;
2049;SDS011;8478;49.208;8.806;2023-09-07T13:25:03;8.23;;;7.73;;
2049;SDS011;8478;49.208;8.806;2023-09-07T13:27:30;7.90;;;7.40;;
2049;SDS011;8478;49.208;8.806;2023-09-07T13:29:56;8.10;;;7.60;;
2049;SDS011;8478;49.208;8.806;2023-09-07T13:32:22;7.80;;;7.30;;
2049;SDS011;8478;49.208;8.806;2023-09-07T13:34:49;8.93;;;8.43;;
2049;SDS011;8478;49.208;8.806;2023-09-07T13:37:15;7.97;;;7.33;;
2049;SDS011;8478;49.208;8.806;2023-09-07T13:39:41;8.20;;;7.80;;
2049;SDS011;8478;49.208;8.806;2023-09-07T13:42:06;8.03;;;7.50;;
2049;SDS011;8478;49.208;8.806;2023-09-07T13:44:32;7.93;;;7.43;;
2049;SDS011;8478;49.208;8.806;2023-09-07T13:46:58;8.97;;;8.40;;
2049;SDS011;8478;49.208;8.806;2023-09-07T13:49:24;7.90;;;7.30;;
2049;SDS011;8478;49.208;8.806;2023-09-07T13:51:50;8.20;;;7.70;;
2049;SDS011;8478;49.208;8.806;2023-09-07T13:54:16;8.77;;;8.20;;
2049;SDS011;8478;49.208;8.806;2023-09-07T13:56:41;9.00;;;8.40;;
2049;SDS011;8478;49.208;8.806;2023-09-07T13:59:09;8.10;;;7.70;;
2049;SDS011;8478;49.208;8.806;2023-09-07T14:01:35;8.70;;;7.90;;
2049;SDS011;8478;49.208;8.806;2023-09-07T14:04:02;8.90;;;8.40;;
2049;SDS011;8478;49.208;8.806;2023-09-07T14:06:28;8.10;;;7.50;;
2049;SDS011;8478;49.208;8.806;2023-09-07T14:08:54;8.57;;;7.97;;
2049;SDS011;8478;49.208;8.806;2023-09-07T14:11:20;9.27;;;8.60;;
2049;SDS011;8478;49.208;8.806;2023-09-07T14:13:47;8.20;;;7.70;;
2049;SDS011;8478;49.208;8.806;2023-09-07T14:16:19;9.17;;;8.30;;
2049;SDS011;8478;49.208;8.806;2023-09-07T14:18:45;7.87;;;7.43;;
2049;SDS011;8478;49.208;8.806;2023-09-07T14:21:12;8.57;;;8.00;;
2049;SDS011;8478;49.208;8.806;2023-09-07T14:23:41;8.57;;;8.07;;
2049;SDS011;8478;49.208;8.806;2023-09-07T14:26:10;8.57;;;7.90;;
2049;SDS011;8478;49.208;8.806;2023-09-07T14:28:35;6.23;;;5.83;;
2049;SDS011;8478;49.208;8.806;2023-09-07T14:31:03;8.10;;;7.60;;
2049;SDS011;8478;49.208;8.806;2023-09-07T14:33:31;8.43;;;7.87;;
2049;SDS011;8478;49.208;8.806;2023-09-07T14:35:57;8.40;;;7.90;;
2049;SDS011;8478;49.208;8.806;2023-09-07T14:38:23;7.57;;;7.17;;
2049;SDS011;8478;49.208;8.806;2023-09-07T14:40:51;8.40;;;7.90;;
2049;SDS011;8478;49.208;8.806;2023-09-07T14:43:20;7.73;;;7.13;;
2049;SDS011;8478;49.208;8.806;2023-09-07T14:45:47;8.27;;;7.60;;
2049;SDS011;8478;49.208;8.806;2023-09-07T14:48:13;7.57;;;7.13;;
2049;SDS011;8478;49.208;8.806;2023-09-07T14:50:38;8.10;;;7.57;;
2049;SDS011;8478;49.208;8.806;2023-09-07T14:53:04;8.07;;;7.57;;
2049;SDS011;8478;49.208;8.806;2023-09-07T14:55:31;8.37;;;7.87;;
2049;SDS011;8478;49.208;8.806;2023-09-07T14:57:57;8.17;;;7.50;;
2049;SDS011;8478;49.208;8.806;2023-09-07T15:00:23;8.60;;;8.10;;
2049;SDS011;8478;49.208;8.806;2023-09-07T15:02:49;7.50;;;7.10;;
2049;SDS011;8478;49.208;8.806;2023-09-07T15:05:15;7.23;;;6.80;;
2049;SDS011;8478;49.208;8.806;2023-09-07T15:07:41;7.40;;;6.90;;
2049;SDS011;8478;49.208;8.806;2023-09-07T15:10:07;7.33;;;6.93;;
2049;SDS011;8478;49.208;8.806;2023-09-07T15:12:32;7.97;;;7.53;;
2049;SDS011;8478;49.208;8.806;2023-09-07T15:14:58;7.60;;;7.10;;
2049;SDS011;8478;49.208;8.806;2023-09-07T15:17:24;7.47;;;6.87;;
2049;SDS011;8478;49.208;8.806;2023-09-07T15:19:50;8.10;;;7.60;;
2049;SDS011;8478;49.208;8.806;2023-09-07T15:22:16;7.60;;;7.10;;